Rechercher aéroport 
image banner adimage banner adimage banner ad
image banner ad

CL99 - Watsonville Community Hospital

Situé à Watsonville, United States

ICAO - CL99, IATA -

Données fournies par Airmate  

Information générale

Coordonnées: N36°55'31" W121°47'34"
Élévation : 111 feet MSL.
Variation magnétique : 16° East
Voir autres Aéroports à California

Données opérationnelles

Special qualification required
Heure actuelle UTC:
Heure actuelle locale:
Météo à : KWVI - Watsonville Muni ( 1 km )
METAR: KWVI 300113Z AUTO 26005KT 10SM BKN008 17/13 A2993 RMK AO2 T01670133
Voir NOTAMs / SUP AIP / TFR affectant cet aéroport [VIEW]
Fréquences de communication: [VIEW]

Pistes:

Coordonnées de l'aéroport

Adresse: Watsonville United States

Vue satellite de CL99